Detall de PIREP

Printer-friendly versionPDF version

[2013/11/08 08:32:00]
Flight IATA:CT2110
Pilot Number:041
Company ICAO:CAT
Aircraft Type:BE58/A
PAX:3
Departing Airport: LEVC
Destination Airport: LEST
Alternate Airport:LEMD
Online: VATSIM
Route:CENTA A33 PRADO A33 CJN A33 HORTA A33 MAGIN A33 INDEG A33 DISKO A33 ZMR A33 BARKO A33 FORNO
Flight Level:FL130
No Slew and time accel
No pause
Crash detect
Detect pilot in Cockpit between each 30 and 45 minutes
08:32 Zero fuel Weight: 4592 Lbs, Fuel Weight: 850 Lbs
08:32 VATSIM:LEVC 080800Z 26009KT CAVOK 18/08 Q1017 NOSIG
08:32 VATSIM:LEST 080800Z 24004KT 200V300 9999 SCT022 BKN045 11/09 Q1019 TEMPO 3000 RA
08:32 VOICE CATALONIAN
08:37 Parking Brakes off
08:43 Take-off
08:43 Take off Weight: 5437 Lbs
08:43 Wind: 263º @ 008 Knots Heading: 293º
08:43 POS N39º 29´ 23´´ W000º 29´ 00´´
08:43 Flaps:1 at 120 Knots
08:43 Gear Up: 120 Knots
08:43 Flaps:0 at 123 Knots
08:55 TOC
08:55 Fuel Weight: 799 Lb
08:58 Wind:259º@024 Knots Heading: 295º Ground Speed: 187 Knots Altitude 13106 ft
09:13 Wind:260º@026 Knots Heading: 294º Ground Speed: 187 Knots Altitude 13152 ft
09:28 Wind:269º@025 Knots Heading: 293º Ground Speed: 184 Knots Altitude 13198 ft
09:43 Wind:266º@036 Knots Heading: 291º Ground Speed: 175 Knots Altitude 13221 ft
09:58 Wind:256º@047 Knots Heading: 287º Ground Speed: 170 Knots Altitude 13149 ft
10:13 Wind:262º@042 Knots Heading: 288º Ground Speed: 175 Knots Altitude 13126 ft
10:28 Wind:262º@044 Knots Heading: 296º Ground Speed: 173 Knots Altitude 13103 ft
10:42 TOD
10:42 Fuel Weight: 434 Lb
10:43 Wind:262º@044 Knots Heading: 295º Ground Speed: 182 Knots Altitude 11873 ft
10:58 Wind:286º@027 Knots Heading: 301º Ground Speed: 167 Knots Altitude 5905 ft
11:13 Wind:249º@006 Knots Heading: 163º Ground Speed: 177 Knots Altitude 2900ft
11:13 Flaps:1 at 134 Knots
11:13 Gear Down: 117 Knots
11:13 Flaps:2 at 108 Knots
11:16 TouchDown:Rate -80 ft/min Speed: 89 Knots
11:16 Flaps:0 at 85 Knots
11:16 VATSIM:LEST 081100Z 24003KT 170V320 9000 -RA SCT017 BKN040 11/11 Q1021 TEMPO 3000 SHRA SCT020TCU
11:16 Land
11:16 Wind:264º@006 Knots
11:16 Heading: 147º
11:16 Flight Duration: 02:33
11:16 Landing Weight: 4933 Lbs
11:16 POS N42º 53´ 49´´ W008º 24´ 55´´
11:18 Parking brakes on
11:18 Block to Block Duration: 02:41
11:18 Final Fuel: 341 Lbls
11:18 Spent Fuel: 509 Lbls
11:18 Flight Length: 445 NM
11:18 TOD Land Length: 96 NM

Exportar CSV

Powered by Drupal - Modified by Danger4k